CSCL Genoa — V2OH2 — position and weather

sailwx.info

Track history (hours):
 
Tides and Currents Weather Stations Pressure Air Temp Water Temp Dewpoint Dewpoint Depression Visibility Wind Speed Wind Dir Waves Ship Positions

CSCL Genoa

Last reported at 2016-Aug-16 21:05 UTC. Time now 2016-Sep-25 07:13 UTC.
Position N 01°56' E 102°19'.
Warning: this ship's position is 39 days out of date.

Length 208 m; beam 32 m; draft 11.5 m.

Type: Ship. MMSI: 304528000.

Date/timePositionNaut miles runAvg speedWind from/ knotsBaromVisibWave heightAir tempDewpointWater temp
2016-Aug-16 21:05N 01°56' E 102°19'612.2
2016-Aug-16 20:33N 01°53' E 102°25'1312.9
2016-Aug-16 19:34N 01°48' E 102°37'1413.5
2016-Aug-16 18:33N 01°42' E 102°49'66 1.9
2016-Aug-15 07:33N 01°13' E 103°48'3 0.2
2016-Aug-14 17:06N 01°15' E 103°48'0 0.1
2016-Aug-14 16:33N 01°15' E 103°48'1 0.7
2016-Aug-14 15:33N 01°15' E 103°47'1 0.9
2016-Aug-14 14:33N 01°16' E 103°47'0 0.0
2016-Aug-14 13:33N 01°16' E 103°47'0 0.0
2016-Aug-14 12:33N 01°16' E 103°47'0 0.0
2016-Aug-14 11:33N 01°16' E 103°47'0 0.0
2016-Aug-14 10:33N 01°16' E 103°47'0 0.0
2016-Aug-14 09:33N 01°16' E 103°47'0 0.1
2016-Aug-14 08:33N 01°16' E 103°47'7 7.3
2016-Aug-14 07:34N 01°14' E 103°54'1312.3
2016-Aug-14 06:32N 01°16' E 104°06'  
2016-Aug-08 12:23N 01°15' E 104°07'1214.2
2016-Aug-08 11:33N 01°13' E 103°56'10 9.6
2016-Aug-08 10:34N 01°15' E 103°47'1 0.6
2016-Aug-08 09:31N 01°16' E 103°47'0 0.0
2016-Aug-08 08:28N 01°16' E 103°47'0 0.0
2016-Aug-08 07:22N 01°16' E 103°47'0 0.0
2016-Aug-08 06:28N 01°16' E 103°47'0 0.0
2016-Aug-08 05:28N 01°16' E 103°47'0 0.0
2016-Aug-08 04:28N 01°16' E 103°47'6 6.0
2016-Aug-08 03:33N 01°14' E 103°42'  
Track history (hours):
 
Tides and Currents Weather Stations Pressure Air Temp Water Temp Dewpoint Dewpoint Depression Visibility Wind Speed Wind Dir Waves Ship Positions

CSCL Genoa

Last reported at 2016-Aug-16 21:05 UTC. Time now 2016-Sep-25 07:13 UTC.
Position N 01°56' E 102°19'.
Warning: this ship's position is 39 days out of date.

Length 208 m; beam 32 m; draft 11.5 m.

Type: Ship. MMSI: 304528000.

Date/timePositionNaut miles runAvg speedWind from/ knotsBaromVisibWave heightAir tempDewpointWater temp
2016-Aug-16 21:05N 01°56' E 102°19'612.2
2016-Aug-16 20:33N 01°53' E 102°25'1312.9
2016-Aug-16 19:34N 01°48' E 102°37'1413.5
2016-Aug-16 18:33N 01°42' E 102°49'66 1.9
2016-Aug-15 07:33N 01°13' E 103°48'3 0.2
2016-Aug-14 17:06N 01°15' E 103°48'0 0.1
2016-Aug-14 16:33N 01°15' E 103°48'1 0.7
2016-Aug-14 15:33N 01°15' E 103°47'1 0.9
2016-Aug-14 14:33N 01°16' E 103°47'0 0.0
2016-Aug-14 13:33N 01°16' E 103°47'0 0.0
2016-Aug-14 12:33N 01°16' E 103°47'0 0.0
2016-Aug-14 11:33N 01°16' E 103°47'0 0.0
2016-Aug-14 10:33N 01°16' E 103°47'0 0.0
2016-Aug-14 09:33N 01°16' E 103°47'0 0.1
2016-Aug-14 08:33N 01°16' E 103°47'7 7.3
2016-Aug-14 07:34N 01°14' E 103°54'1312.3
2016-Aug-14 06:32N 01°16' E 104°06'  
2016-Aug-08 12:23N 01°15' E 104°07'1214.2
2016-Aug-08 11:33N 01°13' E 103°56'10 9.6
2016-Aug-08 10:34N 01°15' E 103°47'1 0.6
2016-Aug-08 09:31N 01°16' E 103°47'0 0.0
2016-Aug-08 08:28N 01°16' E 103°47'0 0.0
2016-Aug-08 07:22N 01°16' E 103°47'0 0.0
2016-Aug-08 06:28N 01°16' E 103°47'0 0.0
2016-Aug-08 05:28N 01°16' E 103°47'0 0.0
2016-Aug-08 04:28N 01°16' E 103°47'6 6.0
2016-Aug-08 03:33N 01°14' E 103°42'  

Dump ship's entire track history